Time;durP1;ratioP1;P1;durP2;ratioP2;P2;SDS_P1;SDS_P2;PMS_P1;PMS_P2;Temp;Humidity;BMP_temperature;BMP_pressure;BME280_temperature;BME280_humidity;BME280_pressure;Samples;Min_cycle;Max_cycle;Signal;HPM_P1;HPM_P2
2022/03/31 00:03:18;;;;;;;5.80;4.10;;;7.20;61.20;;;;;;10420940;28;20230;-87
2022/03/31 00:08:21;;;;;;;5.07;3.43;;;7.80;66.70;;;;;;10436782;28;20220;-87
2022/03/31 00:13:26;;;;;;;5.90;3.37;;;8.60;72.90;;;;;;10454900;28;20211;-87
2022/03/31 00:18:31;;;;;;;3.70;3.17;;;8.10;75.60;;;;;;10454532;28;20286;-87
2022/03/31 00:23:36;;;;;;;6.23;3.67;;;9.90;67.80;;;;;;10437038;28;20228;-87
2022/03/31 00:28:39;;;;;;;6.43;4.13;;;7.70;62.70;;;;;;10454169;28;20258;-88
2022/03/31 00:33:42;;;;;;;4.17;3.27;;;8.20;72.70;;;;;;10454213;28;20239;-88
2022/03/31 00:39:28;;;;;;;5.67;3.73;;;8.40;81.40;;;;;;10487401;28;20264;-87
2022/03/31 00:44:08;;;;;;;4.37;3.57;;;9.70;64.80;;;;;;10493678;28;20198;-87
2022/03/31 00:49:11;;;;;;;5.53;3.57;;;9.70;70.10;;;;;;10493070;28;20358;-88
2022/03/31 00:54:16;;;;;;;5.13;3.37;;;9.60;58.60;;;;;;10493927;28;20192;-88
2022/03/31 00:59:19;;;;;;;3.97;3.23;;;9.40;67.00;;;;;;10492812;28;20616;-87
2022/03/31 01:04:22;;;;;;;3.87;2.67;;;8.20;72.60;;;;;;10492880;28;20639;-88
2022/03/31 01:09:25;;;;;;;9.87;4.40;;;7.60;81.30;;;;;;10492272;28;20665;-87
2022/03/31 01:14:29;;;;;;;5.57;3.37;;;8.30;58.60;;;;;;10493069;28;20226;-87
2022/03/31 01:19:32;;;;;;;4.37;3.20;;;6.90;91.10;;;;;;10493460;28;20253;-87
2022/03/31 01:24:35;;;;;;;4.87;3.17;;;7.60;75.00;;;;;;10492178;28;20211;-87
2022/03/31 01:29:38;;;;;;;3.60;2.67;;;8.00;85.40;;;;;;10493101;28;20267;-87
2022/03/31 01:34:40;;;;;;;3.47;2.63;;;9.20;74.80;;;;;;10490967;28;20314;-87
2022/03/31 01:39:44;;;;;;;4.80;3.50;;;8.40;69.00;;;;;;10458194;28;20278;-87
2022/03/31 01:44:46;;;;;;;5.63;3.57;;;9.80;65.70;;;;;;10416716;28;20205;-88
2022/03/31 01:49:49;;;;;;;4.93;3.47;;;9.20;71.40;;;;;;10444175;28;20227;-88
2022/03/31 01:54:51;;;;;;;6.40;3.70;;;11.10;63.20;;;;;;10433481;28;20198;-88
2022/03/31 01:59:54;;;;;;;4.93;3.47;;;8.10;65.10;;;;;;10451284;28;20302;-87
2022/03/31 02:04:57;;;;;;;7.37;4.50;;;9.20;73.60;;;;;;10472188;28;20237;-87
2022/03/31 02:10:00;;;;;;;5.73;3.57;;;7.50;61.40;;;;;;10483887;28;20709;-87
2022/03/31 02:15:04;;;;;;;3.50;2.93;;;7.90;73.00;;;;;;10457693;28;20241;-87
2022/03/31 02:20:08;;;;;;;3.27;2.40;;;8.80;70.60;;;;;;10446422;28;20252;-87
2022/03/31 02:25:11;;;;;;;4.27;3.60;;;8.00;77.60;;;;;;10432605;28;20256;-88
2022/03/31 02:30:14;;;;;;;4.40;2.37;;;6.90;65.10;;;;;;10432836;28;20270;-87
2022/03/31 02:35:17;;;;;;;4.83;3.03;;;9.10;79.30;;;;;;10452283;28;20320;-87
2022/03/31 02:40:19;;;;;;;4.20;2.93;;;9.70;77.20;;;;;;10431869;28;20273;-87
2022/03/31 02:45:22;;;;;;;4.70;3.40;;;9.20;71.40;;;;;;10450157;28;20219;-90
2022/03/31 02:50:25;;;;;;;5.30;3.60;;;;;;;;;;10431975;28;20307;-88
2022/03/31 02:55:30;;;;;;;5.67;3.67;;;9.60;93.20;;;;;;10430803;28;20235;-88
2022/03/31 03:00:35;;;;;;;10.13;5.20;;;10.10;55.80;;;;;;10438123;28;20229;-88
2022/03/31 03:05:41;;;;;;;3.23;2.50;;;8.50;59.30;;;;;;10439427;28;20227;-88
2022/03/31 03:10:44;;;;;;;10.03;4.50;;;7.80;82.10;;;;;;10439833;28;20237;-88
2022/03/31 03:15:48;;;;;;;6.07;3.50;;;8.20;55.00;;;;;;10439072;28;20675;-88
2022/03/31 03:20:51;;;;;;;3.00;2.63;;;9.70;60.10;;;;;;10454948;28;20253;-88
2022/03/31 03:25:53;;;;;;;5.03;2.83;;;10.40;68.80;;;;;;10436912;28;20254;-88
2022/03/31 03:30:56;;;;;;;4.90;3.17;;;8.50;71.20;;;;;;10454506;28;20596;-88
2022/03/31 03:36:00;;;;;;;3.73;3.10;;;9.50;70.90;;;;;;10454263;28;20663;-88
2022/03/31 03:41:07;;;;;;;7.93;3.43;;;8.80;69.40;;;;;;10422365;28;20684;-88
2022/03/31 03:46:10;;;;;;;5.13;3.47;;;8.30;70.90;;;;;;10438634;28;20765;-88
2022/03/31 03:51:12;;;;;;;3.80;3.33;;;7.00;67.90;;;;;;10437639;28;20243;-88
2022/03/31 03:56:16;;;;;;;4.40;2.90;;;8.20;64.50;;;;;;10438508;28;20670;-88
2022/03/31 04:01:19;;;;;;;4.97;3.00;;;7.50;70.00;;;;;;10453182;28;20201;-88
2022/03/31 04:06:22;;;;;;;3.63;2.47;;;10.60;68.90;;;;;;10437091;28;20270;-88
2022/03/31 04:11:25;;;;;;;3.13;2.43;;;10.10;72.70;;;;;;10454169;28;20679;-87
2022/03/31 04:16:28;;;;;;;3.33;2.37;;;7.80;73.70;;;;;;10436959;28;20602;-88
2022/03/31 04:21:30;;;;;;;3.37;2.47;;;9.70;70.80;;;;;;10444047;28;20241;-88
2022/03/31 04:26:33;;;;;;;4.87;3.50;;;11.00;70.30;;;;;;10436905;28;20231;-87
2022/03/31 04:31:38;;;;;;;4.00;2.97;;;10.50;53.20;;;;;;10452808;28;20203;-87
2022/03/31 04:36:41;;;;;;;3.50;2.23;;;9.00;53.60;;;;;;10467000;28;20262;-87
2022/03/31 04:41:49;;;;;;;6.20;3.27;;;9.50;73.90;;;;;;10497246;28;20665;-87
2022/03/31 04:46:52;;;;;;;3.03;2.37;;;9.90;59.10;;;;;;10495961;28;20258;-87
2022/03/31 04:51:55;;;;;;;3.67;2.20;;;9.10;74.90;;;;;;10477926;28;20266;-87
2022/03/31 04:56:57;;;;;;;3.83;2.80;;;10.10;67.70;;;;;;10493353;28;20249;-88
2022/03/31 05:02:00;;;;;;;7.73;3.90;;;9.20;63.80;;;;;;10494146;28;20247;-87
2022/03/31 05:07:03;;;;;;;2.63;2.13;;;7.90;58.90;;;;;;10494604;28;20237;-87
2022/03/31 05:12:06;;;;;;;3.37;2.30;;;10.60;72.70;;;;;;10494078;28;20232;-87
2022/03/31 05:17:10;;;;;;;2.13;1.90;;;10.70;65.30;;;;;;10504760;28;20257;-87
2022/03/31 05:22:13;;;;;;;4.60;3.17;;;11.30;63.00;;;;;;10492628;28;20289;-87
2022/03/31 05:27:15;;;;;;;7.33;4.13;;;8.80;59.20;;;;;;10480482;28;20204;-87
2022/03/31 05:32:18;;;;;;;6.23;3.10;;;7.60;69.30;;;;;;10475737;28;20365;-88
2022/03/31 05:37:21;;;;;;;6.87;3.97;;;7.60;65.00;;;;;;10454261;28;20239;-87
2022/03/31 05:42:23;;;;;;;6.93;4.93;;;7.40;74.10;;;;;;10419365;28;20247;-87
2022/03/31 05:47:26;;;;;;;14.77;5.97;;;7.70;57.70;;;;;;10418207;28;20216;-87
2022/03/31 05:52:29;;;;;;;2.73;2.30;;;8.80;53.80;;;;;;10450816;28;20214;-87
2022/03/31 05:57:34;;;;;;;6.20;4.40;;;9.90;63.60;;;;;;10501590;28;20221;-88
2022/03/31 06:02:37;;;;;;;7.70;4.10;;;8.80;51.60;;;;;;10484970;28;20184;-93
2022/03/31 06:07:57;;;;;;;7.03;3.33;;;7.70;67.70;;;;;;10487259;28;20216;-93
2022/03/31 06:12:59;;;;;;;7.23;3.73;;;10.80;56.70;;;;;;10470438;28;20211;-93
2022/03/31 06:18:02;;;;;;;9.77;3.53;;;10.70;55.60;;;;;;10470817;28;20234;-92
2022/03/31 06:23:05;;;;;;;6.70;2.90;;;10.90;55.70;;;;;;10505066;28;20202;-93
2022/03/31 06:28:09;;;;;;;19.30;4.63;;;;;;;;;;10468710;28;20212;-86
2022/03/31 06:33:14;;;;;;;8.43;3.77;;;11.80;51.30;;;;;;10468766;28;20182;-87
2022/03/31 06:38:17;;;;;;;12.67;4.87;;;10.60;48.90;;;;;;10518550;28;20232;-87
2022/03/31 06:43:19;;;;;;;4.33;3.43;;;7.80;57.10;;;;;;10544206;28;20178;-87
2022/03/31 06:48:22;;;;;;;7.87;4.07;;;8.90;51.80;;;;;;10542439;28;20204;-87
2022/03/31 06:53:24;;;;;;;19.80;10.93;;;7.70;62.80;;;;;;10529562;28;20212;-87
2022/03/31 06:58:29;;;;;;;15.37;5.63;;;8.10;57.50;;;;;;10534475;28;20232;-87
2022/03/31 07:03:32;;;;;;;12.10;6.00;;;9.20;61.30;;;;;;10543997;28;20207;-87
2022/03/31 07:08:35;;;;;;;16.53;7.20;;;8.90;53.30;;;;;;10545364;28;20177;-87
2022/03/31 07:13:38;;;;;;;8.60;2.63;;;8.40;52.70;;;;;;10543367;28;20177;-87
2022/03/31 07:18:40;;;;;;;7.00;3.43;;;10.40;60.70;;;;;;10489914;28;20226;-87
2022/03/31 07:23:47;;;;;;;17.13;6.40;;;11.20;53.30;;;;;;10499334;28;20642;-87
2022/03/31 07:28:50;;;;;;;5.97;3.50;;;9.40;49.50;;;;;;10478976;28;20243;-87
2022/03/31 07:33:53;;;;;;;4.37;2.57;;;8.80;57.90;;;;;;10495445;28;20214;-87
2022/03/31 07:38:55;;;;;;;7.20;3.27;;;11.40;61.80;;;;;;10494496;28;20234;-87
2022/03/31 07:43:58;;;;;;;11.77;6.27;;;11.00;55.60;;;;;;10499343;28;20198;-87
2022/03/31 07:49:00;;;;;;;4.93;2.70;;;9.60;53.20;;;;;;10503059;28;20556;-87
2022/03/31 07:54:03;;;;;;;5.17;2.30;;;12.30;60.00;;;;;;10503380;28;20217;-87
2022/03/31 07:59:06;;;;;;;4.43;2.27;;;13.80;55.90;;;;;;10502527;28;20206;-87
2022/03/31 08:04:09;;;;;;;5.93;2.90;;;14.40;54.60;;;;;;10502763;28;20255;-87
2022/03/31 08:09:13;;;;;;;6.60;2.50;;;12.30;56.10;;;;;;10501646;28;20232;-87
2022/03/31 08:14:17;;;;;;;11.73;5.63;;;12.60;55.30;;;;;;10502506;28;20603;-87
2022/03/31 08:19:20;;;;;;;12.53;3.93;;;10.50;48.80;;;;;;10475464;28;20215;-87
2022/03/31 08:24:23;;;;;;;2.77;2.07;;;9.40;59.10;;;;;;10484977;28;20214;-87
2022/03/31 08:29:26;;;;;;;4.97;3.80;;;10.00;66.50;;;;;;10477470;28;20210;-87
2022/03/31 08:34:29;;;;;;;5.87;2.63;;;;;;;;;;10455504;28;20199;-87
2022/03/31 08:39:31;;;;;;;5.00;3.73;;;15.30;53.70;;;;;;10412964;28;20249;-87
2022/03/31 08:44:36;;;;;;;2.83;2.27;;;14.70;53.20;;;;;;10414134;28;20278;-87
2022/03/31 08:49:39;;;;;;;2.73;2.20;;;15.30;54.90;;;;;;10415492;28;20663;-87
2022/03/31 08:54:42;;;;;;;11.30;4.87;;;14.20;57.90;;;;;;10451841;28;20418;-87
2022/03/31 08:59:45;;;;;;;17.43;5.70;;;12.50;51.10;;;;;;10418307;28;20640;-87
2022/03/31 09:04:58;;;;;;;4.33;2.30;;;12.50;50.00;;;;;;10433430;28;20223;-87
2022/03/31 09:10:00;;;;;;;3.47;2.13;;;12.30;61.70;;;;;;10432335;28;20464;-88
2022/03/31 09:15:13;;;;;;;4.47;2.77;;;13.10;60.30;;;;;;10453596;28;20655;-87
2022/03/31 09:20:16;;;;;;;4.37;2.60;;;12.10;57.50;;;;;;10448826;28;20242;-87
2022/03/31 09:25:24;;;;;;;13.90;4.30;;;12.50;60.40;;;;;;10450488;28;20292;-87
2022/03/31 09:30:27;;;;;;;9.00;4.30;;;14.20;50.00;;;;;;10417317;28;20745;-87
2022/03/31 09:35:30;;;;;;;10.80;3.57;;;13.70;52.50;;;;;;10426892;28;20711;-87
2022/03/31 09:40:36;;;;;;;6.80;4.57;;;14.00;52.00;;;;;;10409595;28;20646;-88
2022/03/31 09:45:40;;;;;;;4.10;3.33;;;;;;;;;;10393945;28;20251;-88
2022/03/31 09:50:43;;;;;;;7.47;3.27;;;;;;;;;;10395668;28;20680;-88
2022/03/31 09:55:46;;;;;;;24.83;5.40;;;15.40;80.00;;;;;;10429749;28;20767;-87
2022/03/31 10:00:50;;;;;;;3.83;2.33;;;;;;;;;;10375293;28;20640;-87
2022/03/31 10:05:53;;;;;;;4.27;2.53;;;;;;;;;;10411804;28;20238;-87
2022/03/31 10:10:58;;;;;;;6.67;4.00;;;15.70;80.70;;;;;;10402044;28;20789;-87
2022/03/31 10:16:08;;;;;;;22.57;4.13;;;15.40;50.80;;;;;;10415222;28;20199;-87
2022/03/31 10:21:11;;;;;;;11.23;4.23;;;14.70;48.40;;;;;;10441708;28;20767;-88
2022/03/31 10:26:21;;;;;;;6.63;4.37;;;12.40;51.20;;;;;;10449045;28;20252;-87
2022/03/31 10:31:54;;;;;;;8.37;3.43;;;13.90;53.40;;;;;;10431410;28;20257;-88
2022/03/31 10:37:06;;;;;;;8.83;4.20;;;12.80;55.20;;;;;;10325166;28;20739;-87
2022/03/31 10:42:08;;;;;;;4.00;2.53;;;13.30;47.00;;;;;;10329548;28;20322;-87
2022/03/31 10:47:11;;;;;;;3.63;2.50;;;15.10;52.90;;;;;;10361411;28;20271;-87
2022/03/31 10:52:17;;;;;;;5.87;2.90;;;14.90;76.60;;;;;;10344639;28;20247;-87
2022/03/31 10:57:20;;;;;;;3.97;2.40;;;14.20;50.10;;;;;;10362105;28;20267;-87
2022/03/31 11:02:23;;;;;;;11.27;4.10;;;13.80;54.30;;;;;;10345257;28;20696;-87
2022/03/31 11:07:28;;;;;;;7.80;3.90;;;11.70;42.10;;;;;;10361061;28;20345;-88
2022/03/31 11:12:33;;;;;;;4.80;2.57;;;11.40;47.10;;;;;;10395554;28;20226;-87
2022/03/31 11:17:37;;;;;;;3.33;2.87;;;12.80;54.60;;;;;;10438867;28;20287;-88
2022/03/31 11:22:47;;;;;;;5.33;3.27;;;12.70;49.90;;;;;;10495521;28;20241;-87
2022/03/31 11:27:50;;;;;;;3.97;2.50;;;13.90;51.30;;;;;;10496037;28;20233;-87
2022/03/31 11:32:56;;;;;;;8.83;4.33;;;14.50;52.90;;;;;;10496751;28;20609;-88
2022/03/31 11:38:00;;;;;;;11.70;2.97;;;13.40;46.20;;;;;;10478711;28;20296;-87
2022/03/31 11:43:09;;;;;;;6.97;2.57;;;11.70;50.30;;;;;;10495573;28;20314;-87
2022/03/31 11:48:15;;;;;;;4.30;2.10;;;13.80;52.80;;;;;;10494227;28;20303;-87
2022/03/31 11:53:25;;;;;;;3.60;2.93;;;13.90;52.40;;;;;;10494175;28;20230;-87
2022/03/31 11:58:27;;;;;;;4.40;2.13;;;12.20;49.40;;;;;;10465591;28;20195;-87
2022/03/31 12:03:37;;;;;;;5.77;2.47;;;13.60;52.50;;;;;;10478740;28;20296;-87
2022/03/31 12:08:41;;;;;;;11.93;4.07;;;14.20;46.50;;;;;;10476280;28;20265;-87
2022/03/31 12:13:57;;;;;;;3.30;1.60;;;13.40;44.90;;;;;;10473224;28;20227;-87
2022/03/31 12:19:00;;;;;;;7.27;3.17;;;13.40;56.00;;;;;;10454715;28;20280;-87
2022/03/31 12:24:05;;;;;;;5.47;3.03;;;12.70;46.80;;;;;;10470962;28;20746;-87
2022/03/31 12:29:16;;;;;;;4.07;2.13;;;12.00;47.10;;;;;;10495108;28;20303;-87
2022/03/31 12:34:19;;;;;;;2.10;1.90;;;12.40;58.70;;;;;;10463517;28;20277;-88
2022/03/31 12:39:22;;;;;;;3.77;1.80;;;14.70;53.50;;;;;;10475757;28;20699;-87
2022/03/31 12:44:28;;;;;;;9.07;3.23;;;13.80;55.80;;;;;;10476990;28;20325;-87
2022/03/31 12:49:36;;;;;;;7.27;2.03;;;12.60;47.40;;;;;;10492037;28;20233;-87
2022/03/31 12:54:46;;;;;;;10.37;2.87;;;13.60;52.50;;;;;;10475370;28;20267;-87
2022/03/31 13:00:02;;;;;;;2.40;1.90;;;12.60;46.00;;;;;;10454230;28;20247;-87
2022/03/31 13:05:21;;;;;;;12.07;2.43;;;14.80;54.90;;;;;;10483830;28;20256;-87
2022/03/31 13:10:27;;;;;;;10.83;3.07;;;14.30;43.20;;;;;;10455807;28;20235;-87
2022/03/31 13:15:30;;;;;;;17.27;3.23;;;14.30;40.00;;;;;;10475086;28;20218;-87
2022/03/31 13:20:32;;;;;;;4.77;2.10;;;12.50;40.80;;;;;;10458357;28;20277;-88
2022/03/31 13:25:35;;;;;;;5.63;2.30;;;13.40;42.10;;;;;;10437606;28;20537;-87
2022/03/31 13:30:38;;;;;;;3.47;2.50;;;13.50;42.30;;;;;;10492964;28;20612;-87
2022/03/31 13:35:41;;;;;;;6.37;2.43;;;14.00;38.40;;;;;;10467171;28;20262;-87
2022/03/31 13:40:44;;;;;;;3.53;2.10;;;13.80;44.30;;;;;;10422744;28;20242;-87
2022/03/31 13:45:47;;;;;;;5.23;2.30;;;13.70;41.90;;;;;;10427991;28;20262;-87
2022/03/31 13:50:49;;;;;;;4.97;2.53;;;13.10;43.80;;;;;;10421422;28;20888;-87
2022/03/31 13:55:52;;;;;;;4.23;1.83;;;11.60;38.90;;;;;;10394673;28;20334;-87
2022/03/31 14:01:13;;;;;;;4.77;2.17;;;12.50;49.30;;;;;;10392716;28;20255;-86
2022/03/31 14:06:18;;;;;;;3.97;1.87;;;13.20;48.30;;;;;;10392052;28;20227;-86
2022/03/31 14:11:24;;;;;;;18.37;2.90;;;14.10;42.00;;;;;;10396591;28;20219;-96
2022/03/31 14:16:29;;;;;;;14.37;2.73;;;13.60;44.20;;;;;;10406913;28;20200;-91
2022/03/31 14:21:31;;;;;;;8.43;3.20;;;14.60;38.50;;;;;;10393843;28;20251;-91
2022/03/31 14:26:35;;;;;;;6.20;2.20;;;13.50;39.90;;;;;;10377170;28;20200;-90
2022/03/31 14:31:38;;;;;;;16.77;4.67;;;12.60;41.20;;;;;;10393051;28;20225;-91
2022/03/31 14:36:43;;;;;;;15.00;3.50;;;12.70;37.20;;;;;;10411334;28;20235;-89
2022/03/31 14:41:48;;;;;;;9.53;3.30;;;11.80;44.80;;;;;;10418954;28;20247;-86
2022/03/31 14:46:52;;;;;;;12.80;3.23;;;13.50;38.70;;;;;;10396069;28;20221;-84
2022/03/31 14:51:56;;;;;;;11.43;2.80;;;12.20;37.00;;;;;;10415614;28;20215;-84
2022/03/31 14:56:58;;;;;;;7.30;2.67;;;13.60;46.40;;;;;;10432736;28;20199;-85
2022/03/31 15:02:01;;;;;;;19.87;5.07;;;13.60;44.90;;;;;;10444372;28;20625;-85
2022/03/31 15:07:04;;;;;;;19.80;3.93;;;13.70;44.80;;;;;;10443284;28;20200;-83
2022/03/31 15:17:28;;;;;;;42.60;8.77;;;13.70;35.30;;;;;;10442301;28;20202;-84
2022/03/31 15:22:31;;;;;;;6.43;3.90;;;12.00;37.80;;;;;;10484671;28;20245;-84
2022/03/31 15:27:34;;;;;;;5.77;2.77;;;12.10;40.40;;;;;;10460008;28;20195;-85
2022/03/31 15:32:37;;;;;;;8.40;2.33;;;11.60;42.10;;;;;;10468356;28;20861;-84
2022/03/31 15:37:40;;;;;;;8.37;2.90;;;12.10;51.40;;;;;;10481229;28;20241;-84
2022/03/31 15:42:42;;;;;;;6.10;2.37;;;12.50;45.20;;;;;;10522834;28;20211;-84
2022/03/31 15:47:45;;;;;;;4.87;2.30;;;;;;;;;;10510243;28;20172;-84
2022/03/31 15:52:48;;;;;;;2.87;1.93;;;15.80;70.30;;;;;;10511125;28;20196;-84
2022/03/31 15:57:53;;;;;;;6.93;2.97;;;14.90;47.70;;;;;;10530036;28;20202;-85
2022/03/31 16:02:56;;;;;;;4.67;2.73;;;14.50;44.40;;;;;;10518538;28;20198;-85
2022/03/31 16:07:58;;;;;;;3.93;2.57;;;13.10;46.00;;;;;;10549967;28;20240;-86
2022/03/31 16:13:01;;;;;;;3.73;2.73;;;12.90;49.20;;;;;;10548036;28;20205;-86
2022/03/31 16:18:04;;;;;;;3.70;2.30;;;14.40;41.90;;;;;;10471521;28;20194;-86
2022/03/31 16:28:33;;;;;;;8.50;2.50;;;12.00;40.20;;;;;;10505545;28;20194;-86
2022/03/31 16:33:35;;;;;;;10.13;3.97;;;13.00;44.30;;;;;;10495191;28;20203;-86
2022/03/31 16:38:39;;;;;;;16.77;3.87;;;13.50;38.10;;;;;;10432385;28;20270;-86
2022/03/31 16:43:43;;;;;;;11.60;4.27;;;11.70;45.80;;;;;;10426778;28;20575;-87
2022/03/31 16:48:47;;;;;;;11.03;4.17;;;13.70;37.20;;;;;;10425063;28;20211;-86
2022/03/31 16:53:49;;;;;;;6.33;2.90;;;14.10;49.40;;;;;;10436140;28;20199;-86
2022/03/31 16:58:51;;;;;;;5.97;3.60;;;12.20;46.90;;;;;;10446794;28;20245;-86
2022/03/31 17:03:56;;;;;;;9.83;3.47;;;9.80;43.10;;;;;;10413252;28;20640;-87
2022/03/31 17:08:59;;;;;;;6.57;2.43;;;11.00;47.90;;;;;;10426695;28;20195;-86
2022/03/31 17:14:02;;;;;;;3.47;1.90;;;12.00;47.10;;;;;;10422530;28;20226;-86
2022/03/31 17:19:07;;;;;;;9.30;3.97;;;11.30;57.50;;;;;;10409817;28;20264;-86
2022/03/31 17:24:10;;;;;;;9.93;5.10;;;12.60;44.30;;;;;;10409047;28;20224;-86
2022/03/31 17:29:13;;;;;;;17.53;4.80;;;9.80;47.80;;;;;;10434491;28;20594;-86
2022/03/31 17:34:16;;;;;;;11.07;3.83;;;10.70;36.20;;;;;;10431384;28;20199;-86
2022/03/31 17:39:18;;;;;;;5.73;3.77;;;10.00;45.80;;;;;;10471758;28;20350;-86
2022/03/31 17:44:21;;;;;;;3.70;2.00;;;11.20;43.70;;;;;;10498072;28;20332;-86
2022/03/31 17:49:26;;;;;;;7.87;3.33;;;11.30;55.70;;;;;;10485622;28;20300;-86
2022/03/31 17:54:28;;;;;;;4.67;3.40;;;11.40;46.00;;;;;;10462443;28;20643;-86
2022/03/31 17:59:31;;;;;;;6.13;2.77;;;10.10;36.60;;;;;;10465215;28;20255;-86
2022/03/31 18:04:35;;;;;;;6.40;3.30;;;11.30;43.30;;;;;;10443932;28;20255;-86
2022/03/31 18:09:38;;;;;;;9.30;4.33;;;10.20;48.30;;;;;;10468132;28;20611;-86
2022/03/31 18:14:41;;;;;;;12.60;4.10;;;11.20;45.30;;;;;;10465773;28;20287;-86
2022/03/31 18:19:44;;;;;;;8.27;4.83;;;10.20;48.20;;;;;;10448744;28;20303;-86
2022/03/31 18:24:47;;;;;;;14.60;4.27;;;10.50;41.20;;;;;;10450783;28;20226;-86
2022/03/31 18:35:13;;;;;;;7.23;4.43;;;9.10;51.20;;;;;;10468930;28;20327;-86
2022/03/31 18:40:18;;;;;;;4.97;2.87;;;10.00;49.10;;;;;;10440577;28;20221;-86
2022/03/31 18:45:21;;;;;;;9.30;3.80;;;11.20;54.30;;;;;;10391286;28;20273;-86
2022/03/31 18:50:24;;;;;;;3.23;2.23;;;10.30;49.50;;;;;;10401707;28;20272;-86
2022/03/31 18:55:27;;;;;;;5.33;3.60;;;8.80;59.60;;;;;;10427483;28;20246;-86
2022/03/31 19:00:31;;;;;;;6.43;3.40;;;9.80;47.60;;;;;;10402014;28;20257;-86
2022/03/31 19:05:39;;;;;;;5.20;3.07;;;10.70;51.10;;;;;;10397088;28;20201;-86
2022/03/31 19:10:46;;;;;;;4.37;3.17;;;10.00;49.10;;;;;;10390093;28;20207;-85
2022/03/31 19:15:49;;;;;;;8.20;4.17;;;10.80;54.10;;;;;;10443595;28;20623;-85
2022/03/31 19:20:52;;;;;;;8.87;3.97;;;9.20;42.10;;;;;;10424288;28;20270;-85
2022/03/31 19:25:54;;;;;;;6.03;3.33;;;10.00;41.70;;;;;;10388203;28;20239;-85
2022/03/31 19:30:58;;;;;;;6.83;2.67;;;9.20;58.00;;;;;;10419270;28;20299;-85
2022/03/31 19:36:00;;;;;;;3.97;2.73;;;10.80;58.90;;;;;;10428112;28;20261;-85
2022/03/31 19:41:04;;;;;;;2.43;1.77;;;10.30;55.60;;;;;;10413115;28;20251;-85
2022/03/31 19:46:08;;;;;;;14.13;3.67;;;9.70;58.30;;;;;;10435909;28;20230;-85
2022/03/31 19:51:11;;;;;;;5.17;3.37;;;9.20;46.30;;;;;;10396947;28;20236;-86
2022/03/31 19:56:15;;;;;;;6.83;4.67;;;10.60;45.60;;;;;;10397233;28;20630;-85
2022/03/31 20:01:19;;;;;;;4.67;3.27;;;9.60;40.90;;;;;;10415720;28;20320;-84
2022/03/31 20:06:22;;;;;;;7.10;4.17;;;10.20;56.50;;;;;;10424590;28;20287;-84
2022/03/31 20:11:24;;;;;;;7.77;4.00;;;10.40;41.30;;;;;;10413330;28;20231;-85
2022/03/31 20:16:27;;;;;;;7.60;5.00;;;9.40;47.40;;;;;;10434576;28;20269;-84
2022/03/31 20:21:29;;;;;;;6.13;3.00;;;10.70;45.10;;;;;;10419012;28;20266;-84
2022/03/31 20:26:32;;;;;;;5.63;3.90;;;10.70;51.90;;;;;;10433111;28;20280;-84
2022/03/31 20:31:35;;;;;;;6.80;3.80;;;11.40;46.80;;;;;;10415807;28;20235;-84
2022/03/31 20:36:37;;;;;;;11.40;4.10;;;9.00;53.00;;;;;;10402965;28;20268;-84
2022/03/31 20:41:40;;;;;;;12.00;4.90;;;8.30;55.20;;;;;;10410768;28;20269;-84
2022/03/31 20:46:43;;;;;;;7.73;3.80;;;10.30;39.50;;;;;;10428989;28;20229;-84
2022/03/31 20:51:46;;;;;;;9.03;5.43;;;11.20;52.30;;;;;;10431020;28;20230;-84
2022/03/31 20:56:49;;;;;;;9.00;4.00;;;8.80;44.00;;;;;;10412030;28;20617;-84
2022/03/31 21:01:52;;;;;;;6.27;3.73;;;7.80;54.90;;;;;;10408311;28;20250;-84
2022/03/31 21:06:54;;;;;;;9.43;3.80;;;9.30;49.20;;;;;;10392856;28;20238;-84
2022/03/31 21:12:03;;;;;;;6.60;4.43;;;8.20;43.00;;;;;;10425921;28;20237;-84
2022/03/31 21:17:06;;;;;;;5.23;2.77;;;9.50;50.60;;;;;;10410194;28;20234;-84
2022/03/31 21:22:10;;;;;;;8.43;3.97;;;8.10;56.70;;;;;;10420831;28;20710;-84
2022/03/31 21:27:15;;;;;;;5.53;2.93;;;10.20;49.00;;;;;;10433727;28;20562;-84
2022/03/31 21:32:17;;;;;;;4.83;2.47;;;10.50;53.00;;;;;;10402176;28;20207;-84
2022/03/31 21:37:20;;;;;;;6.23;4.10;;;10.20;53.00;;;;;;10410968;28;20266;-84
2022/03/31 21:42:24;;;;;;;6.63;3.87;;;;;;;;;;10421841;28;20241;-84
2022/03/31 21:47:27;;;;;;;9.17;4.80;;;9.30;43.30;;;;;;10447261;28;20397;-84
2022/03/31 21:52:29;;;;;;;5.77;3.07;;;8.80;40.60;;;;;;10391806;28;20237;-84
2022/03/31 21:57:32;;;;;;;6.33;3.73;;;10.50;57.30;;;;;;10391781;28;20268;-84
2022/03/31 22:02:34;;;;;;;4.60;2.40;;;10.20;43.20;;;;;;10404889;28;20292;-84
2022/03/31 22:07:37;;;;;;;6.20;2.63;;;11.70;58.10;;;;;;10450262;28;20223;-84
2022/03/31 22:12:40;;;;;;;11.07;5.60;;;9.30;60.00;;;;;;10450718;28;20239;-84
2022/03/31 22:17:42;;;;;;;3.43;2.30;;;7.90;42.50;;;;;;10425112;28;20220;-84
2022/03/31 22:22:45;;;;;;;3.50;2.60;;;9.00;55.10;;;;;;10431279;28;20280;-84
2022/03/31 22:27:47;;;;;;;8.97;4.00;;;8.20;66.20;;;;;;10449831;28;20686;-84
2022/03/31 22:32:51;;;;;;;6.73;2.87;;;8.50;45.00;;;;;;10449535;28;20230;-84
2022/03/31 22:37:53;;;;;;;9.53;4.77;;;10.50;47.50;;;;;;10449807;28;20264;-84
2022/03/31 22:42:56;;;;;;;3.70;3.17;;;9.30;48.50;;;;;;10447287;28;20798;-84
2022/03/31 22:47:58;;;;;;;6.20;3.57;;;9.10;52.70;;;;;;10408858;28;20234;-84
2022/03/31 22:53:01;;;;;;;8.37;3.70;;;8.30;52.80;;;;;;10413935;28;20238;-83
2022/03/31 22:58:05;;;;;;;5.33;3.73;;;7.50;52.60;;;;;;10431580;28;20236;-84
2022/03/31 23:03:07;;;;;;;4.50;2.83;;;9.10;46.60;;;;;;10424840;28;20333;-84
2022/03/31 23:08:11;;;;;;;6.67;4.07;;;8.60;59.10;;;;;;10391471;28;20202;-84
2022/03/31 23:13:15;;;;;;;5.90;3.97;;;6.80;45.00;;;;;;10438541;28;20644;-84
2022/03/31 23:18:18;;;;;;;5.00;3.70;;;8.20;48.30;;;;;;10397365;28;20203;-84
2022/03/31 23:23:20;;;;;;;8.67;3.30;;;7.80;46.90;;;;;;10417028;28;20316;-83
2022/03/31 23:28:23;;;;;;;7.30;3.90;;;6.50;50.10;;;;;;10422006;28;20196;-83
2022/03/31 23:33:26;;;;;;;6.37;4.27;;;6.90;45.60;;;;;;10457552;28;20257;-84
2022/03/31 23:38:29;;;;;;;3.53;2.30;;;8.40;43.30;;;;;;10473987;28;20233;-84
2022/03/31 23:43:32;;;;;;;2.80;2.03;;;10.20;60.90;;;;;;10456259;28;20629;-84
2022/03/31 23:48:35;;;;;;;6.00;3.03;;;9.40;59.10;;;;;;10455650;28;20680;-84
2022/03/31 23:53:39;;;;;;;5.90;3.03;;;10.00;48.70;;;;;;10465692;28;20233;-84
2022/03/31 23:58:42;;;;;;;3.57;2.70;;;8.90;51.10;;;;;;10497761;28;20285;-84
